Terminal Aerodrome Forecast
Issued by NWS Wilmington, OH

Current Version | Previous Version | Graphics & Text | Print | Product List | Glossary On
Versions: 1 2 3 4 5 6 7 8 9 10 11 12 13
000
FTUS41 KILN 012300
TAFILN
TAF
KILN 012339Z 0200/0224 01008KT P6SM FEW090
     FM020200 VRB02KT P6SM SKC
      TEMPO 0208/0211 4SM BR
     FM021200 25005KT P6SM SCT200
     FM021800 25006KT P6SM SCT060=

USA.gov is the U.S. government's official web portal to all federal, state and local government web resources and services.